Time;durP1;ratioP1;P1;durP2;ratioP2;P2;SDS_P1;SDS_P2;PMS_P1;PMS_P2;Temp;Humidity;BMP_temperature;BMP_pressure;BME280_temperature;BME280_humidity;BME280_pressure;Samples;Min_cycle;Max_cycle;Signal;HPM_P1;HPM_P2
2022/09/05 00:01:32;;;;;;;4.75;2.05;;;19.60;99.90;;;;;;5028489;28;20054;-65
2022/09/05 00:04:24;;;;;;;4.28;2.30;;;19.80;99.90;;;;;;5051222;28;20503;-65
2022/09/05 00:07:11;;;;;;;5.88;2.20;;;19.40;99.90;;;;;;5049231;28;20391;-65
2022/09/05 00:09:36;;;;;;;3.95;2.58;;;19.70;99.90;;;;;;5021999;28;20049;-65
2022/09/05 00:12:04;;;;;;;3.30;2.50;;;19.60;99.90;;;;;;5016920;28;20045;-65
2022/09/05 00:14:44;;;;;;;8.45;2.80;;;19.70;99.90;;;;;;5047114;28;20052;-65
2022/09/05 00:18:03;;;;;;;6.20;2.92;;;19.70;99.90;;;;;;5032585;28;20046;-65
2022/09/05 00:20:37;;;;;;;3.65;2.47;;;19.70;99.90;;;;;;5034428;28;20048;-65
2022/09/05 00:23:11;;;;;;;3.95;2.58;;;19.70;99.90;;;;;;5039427;28;20066;-65
2022/09/05 00:26:17;;;;;;;3.95;2.50;;;19.40;99.90;;;;;;5017692;28;20042;-65
2022/09/05 00:29:16;;;;;;;4.80;2.22;;;19.60;99.90;;;;;;5016512;28;20115;-65
2022/09/05 00:32:35;;;;;;;5.43;2.65;;;19.50;99.90;;;;;;5041282;28;20096;-65
2022/09/05 00:35:04;;;;;;;5.70;2.33;;;19.40;99.90;;;;;;4964527;28;20116;-65
2022/09/05 00:37:41;;;;;;;5.53;2.50;;;19.10;99.90;;;;;;5033706;28;20044;-65
2022/09/05 00:40:31;;;;;;;4.15;2.72;;;19.30;99.90;;;;;;5054082;28;20037;-65
2022/09/05 00:43:15;;;;;;;6.20;3.00;;;19.20;99.90;;;;;;5004241;28;20037;-65
2022/09/05 00:46:01;;;;;;;6.75;2.80;;;19.40;99.90;;;;;;5030193;28;20037;-65
2022/09/05 00:48:44;;;;;;;2.88;2.35;;;19.30;99.90;;;;;;5043938;28;20048;-65
2022/09/05 00:51:28;;;;;;;3.92;2.53;;;19.30;99.90;;;;;;5034963;28;20040;-65
2022/09/05 00:54:23;;;;;;;4.93;2.37;;;19.40;99.90;;;;;;5033942;28;20041;-65
2022/09/05 00:57:18;;;;;;;3.53;2.40;;;19.10;99.90;;;;;;5043405;28;20355;-65
2022/09/05 00:59:59;;;;;;;7.95;2.97;;;19.10;99.90;;;;;;5035876;28;20303;-65
2022/09/05 01:02:44;;;;;;;4.57;2.83;;;19.20;99.90;;;;;;5019107;28;20059;-65
2022/09/05 01:05:28;;;;;;;4.95;3.00;;;18.90;99.90;;;;;;5012000;28;20040;-65
2022/09/05 01:08:18;;;;;;;6.60;3.15;;;18.80;99.90;;;;;;5037661;28;20518;-65
2022/09/05 01:11:02;;;;;;;4.07;2.58;;;18.90;99.90;;;;;;5019170;28;20083;-65
2022/09/05 01:13:50;;;;;;;4.53;2.78;;;18.90;99.90;;;;;;5008422;28;20045;-65
2022/09/05 01:16:40;;;;;;;4.38;3.10;;;19.00;99.90;;;;;;5035382;28;20095;-65
2022/09/05 01:19:37;;;;;;;6.25;2.67;;;18.90;99.90;;;;;;5053454;28;20044;-65
2022/09/05 01:22:16;;;;;;;4.75;3.00;;;18.80;99.90;;;;;;5027429;28;20033;-65
2022/09/05 01:25:30;;;;;;;7.15;4.55;;;18.90;99.90;;;;;;5039355;28;20095;-65
2022/09/05 01:28:01;;;;;;;5.50;3.72;;;18.80;99.90;;;;;;5008138;28;20167;-65
2022/09/05 01:30:41;;;;;;;4.75;2.95;;;18.90;99.90;;;;;;5053188;28;20449;-65
2022/09/05 01:33:16;;;;;;;5.80;3.00;;;19.10;99.90;;;;;;5035306;28;20049;-65
2022/09/05 01:35:55;;;;;;;10.07;3.33;;;18.80;99.90;;;;;;5008460;28;20115;-65
2022/09/05 01:39:13;;;;;;;5.13;3.40;;;18.80;99.90;;;;;;5038640;28;20384;-65
2022/09/05 01:41:51;;;;;;;6.53;3.47;;;18.80;99.90;;;;;;4923956;29;20109;-65
2022/09/05 01:44:42;;;;;;;5.18;3.15;;;18.70;99.90;;;;;;4924815;29;20051;-65
2022/09/05 01:47:18;;;;;;;4.07;2.75;;;18.70;99.90;;;;;;5034606;28;20080;-65
2022/09/05 01:49:56;;;;;;;5.95;3.70;;;18.80;99.90;;;;;;5035229;28;20049;-65
2022/09/05 01:52:31;;;;;;;5.65;3.45;;;18.40;99.90;;;;;;5052742;28;20451;-65
2022/09/05 01:55:35;;;;;;;8.50;3.92;;;18.70;99.90;;;;;;5034804;28;20087;-65
2022/09/05 01:58:20;;;;;;;6.40;3.80;;;18.50;99.90;;;;;;5021263;28;20041;-65
2022/09/05 02:01:03;;;;;;;6.78;3.40;;;18.50;99.90;;;;;;5017281;28;20049;-65
2022/09/05 02:03:29;;;;;;;4.05;3.28;;;18.50;99.90;;;;;;5034661;28;20412;-65
2022/09/05 02:06:19;;;;;;;5.57;3.58;;;18.30;99.90;;;;;;5049591;28;20052;-65
2022/09/05 02:09:01;;;;;;;8.00;3.60;;;18.40;99.90;;;;;;5045002;28;20045;-65
2022/09/05 02:11:57;;;;;;;9.65;3.97;;;18.30;99.90;;;;;;5008273;28;20044;-65
2022/09/05 02:14:41;;;;;;;10.48;3.83;;;18.20;99.90;;;;;;5001899;28;20053;-65
2022/09/05 02:17:30;;;;;;;5.68;4.00;;;18.10;99.90;;;;;;5014781;28;20045;-65
2022/09/05 02:20:17;;;;;;;5.45;3.83;;;18.30;99.90;;;;;;5039187;28;20037;-65
2022/09/05 02:22:49;;;;;;;4.97;3.38;;;18.10;99.90;;;;;;5034516;28;20044;-65
2022/09/05 02:25:18;;;;;;;8.20;3.75;;;17.90;99.90;;;;;;5038373;28;20037;-65
2022/09/05 02:27:59;;;;;;;5.32;3.33;;;18.20;99.90;;;;;;5034463;28;20128;-65
2022/09/05 02:30:32;;;;;;;4.68;3.85;;;18.10;99.90;;;;;;5047518;28;20500;-65
2022/09/05 02:33:44;;;;;;;5.15;3.75;;;18.10;99.90;;;;;;5026430;28;20041;-65
2022/09/05 02:36:35;;;;;;;6.60;5.00;;;17.90;99.90;;;;;;4961931;28;20057;-65
2022/09/05 02:39:16;;;;;;;5.85;3.95;;;17.70;99.90;;;;;;4971624;28;20093;-65
2022/09/05 02:42:00;;;;;;;6.60;4.55;;;17.70;99.90;;;;;;5033900;28;20049;-65
2022/09/05 02:44:54;;;;;;;4.80;4.00;;;17.60;99.90;;;;;;5011050;28;20049;-65
2022/09/05 02:47:38;;;;;;;8.20;3.95;;;17.90;99.90;;;;;;5052486;28;20025;-65
2022/09/05 02:50:27;;;;;;;5.47;3.67;;;17.60;99.90;;;;;;5052417;28;20395;-65
2022/09/05 02:52:55;;;;;;;7.35;4.05;;;17.50;99.90;;;;;;5010586;28;20092;-65
2022/09/05 02:55:41;;;;;;;5.30;4.07;;;17.50;99.90;;;;;;5052274;28;20041;-65
2022/09/05 02:58:10;;;;;;;5.07;3.97;;;17.60;99.90;;;;;;5014788;28;20089;-65
2022/09/05 03:00:53;;;;;;;5.47;4.07;;;17.50;99.90;;;;;;5032122;28;20053;-65
2022/09/05 03:03:35;;;;;;;7.85;4.55;;;17.50;99.90;;;;;;5031799;28;20049;-65
2022/09/05 03:06:10;;;;;;;6.60;4.50;;;17.40;99.90;;;;;;5032185;28;20090;-65
2022/09/05 03:08:55;;;;;;;7.88;4.53;;;17.70;99.90;;;;;;5014551;28;20052;-65
2022/09/05 03:11:39;;;;;;;7.10;4.47;;;17.80;99.90;;;;;;5034425;28;20079;-65
2022/09/05 03:14:33;;;;;;;7.93;5.20;;;17.60;99.90;;;;;;5024028;28;20064;-65
2022/09/05 03:17:17;;;;;;;6.47;5.32;;;17.50;99.90;;;;;;5055659;28;20040;-65
2022/09/05 03:19:45;;;;;;;7.45;5.22;;;17.50;99.90;;;;;;5055355;28;20395;-65
2022/09/05 03:22:39;;;;;;;5.85;4.57;;;17.60;99.90;;;;;;5055409;28;20044;-65
2022/09/05 03:25:37;;;;;;;4.97;4.47;;;17.40;99.90;;;;;;5017628;28;20055;-65
2022/09/05 03:28:21;;;;;;;8.20;4.90;;;17.60;99.90;;;;;;4994654;28;20514;-65
2022/09/05 03:31:08;;;;;;;6.78;4.80;;;17.20;99.90;;;;;;5005556;28;20483;-65
2022/09/05 03:34:11;;;;;;;5.47;4.43;;;17.10;99.90;;;;;;5034348;28;20048;-65
2022/09/05 03:36:50;;;;;;;6.78;5.03;;;17.10;99.90;;;;;;5037237;28;20484;-65
2022/09/05 03:39:43;;;;;;;7.32;5.10;;;17.10;99.90;;;;;;5030761;28;20041;-65
2022/09/05 03:42:59;;;;;;;6.43;4.70;;;16.90;99.90;;;;;;5033783;28;20561;-65
2022/09/05 03:45:36;;;;;;;9.00;4.90;;;17.20;99.90;;;;;;5000057;28;20053;-65
2022/09/05 03:48:24;;;;;;;9.98;4.80;;;17.20;99.90;;;;;;5055058;28;20041;-65
2022/09/05 03:51:36;;;;;;;6.05;4.70;;;17.20;99.90;;;;;;5036915;28;20066;-65
2022/09/05 03:54:21;;;;;;;10.32;5.13;;;17.00;99.90;;;;;;5040824;28;20073;-65
2022/09/05 03:57:32;;;;;;;8.48;5.38;;;17.20;99.90;;;;;;5025581;28;20084;-65
2022/09/05 04:00:21;;;;;;;8.40;5.70;;;17.00;99.90;;;;;;4919410;29;20052;-65
2022/09/05 04:02:59;;;;;;;5.63;5.05;;;17.00;99.90;;;;;;4953999;29;20437;-65
2022/09/05 04:05:29;;;;;;;6.55;5.13;;;17.30;99.90;;;;;;5008253;28;20095;-65
2022/09/05 04:08:07;;;;;;;5.63;4.38;;;16.90;99.90;;;;;;5039752;28;20033;-65
2022/09/05 04:10:51;;;;;;;7.47;4.85;;;17.00;99.90;;;;;;5048172;28;20076;-65
2022/09/05 04:13:30;;;;;;;6.50;5.40;;;17.00;99.90;;;;;;5012710;28;20051;-65
2022/09/05 04:16:14;;;;;;;8.00;4.95;;;17.00;99.90;;;;;;5054369;28;20427;-65
2022/09/05 04:18:50;;;;;;;5.90;5.30;;;16.80;99.90;;;;;;5054630;28;20497;-65
2022/09/05 04:21:21;;;;;;;6.50;5.45;;;16.70;99.90;;;;;;5036452;28;20040;-65
2022/09/05 04:24:26;;;;;;;6.43;4.80;;;16.80;99.90;;;;;;5048368;28;20065;-65
2022/09/05 04:27:09;;;;;;;8.15;5.40;;;16.80;99.90;;;;;;5040054;28;20052;-65
2022/09/05 04:30:02;;;;;;;5.88;4.72;;;16.80;99.90;;;;;;5036424;28;20051;-65
2022/09/05 04:32:52;;;;;;;9.70;5.35;;;16.70;99.90;;;;;;5033200;28;20506;-65
2022/09/05 04:35:38;;;;;;;8.50;5.35;;;16.70;99.90;;;;;;5019578;28;20410;-65
2022/09/05 04:38:10;;;;;;;8.10;5.28;;;16.70;99.90;;;;;;5036390;28;20048;-65
2022/09/05 04:40:57;;;;;;;7.53;5.45;;;16.70;99.90;;;;;;5053889;28;20041;-65
2022/09/05 04:43:31;;;;;;;6.10;5.15;;;16.50;99.90;;;;;;5036420;28;20045;-65
2022/09/05 04:46:28;;;;;;;6.45;5.20;;;16.70;99.90;;;;;;5009901;28;20052;-65
2022/09/05 04:49:28;;;;;;;7.15;5.70;;;16.80;99.90;;;;;;5036157;28;20120;-65
2022/09/05 04:52:15;;;;;;;9.57;5.55;;;16.50;99.90;;;;;;5035896;28;20045;-65
2022/09/05 04:55:07;;;;;;;9.10;5.32;;;16.50;99.90;;;;;;5022865;28;20040;-65
2022/09/05 04:58:06;;;;;;;7.50;6.10;;;16.50;99.90;;;;;;5019341;28;20049;-65
2022/09/05 05:00:39;;;;;;;10.98;6.05;;;16.70;99.90;;;;;;5048342;28;20045;-65
2022/09/05 05:03:16;;;;;;;9.23;6.40;;;16.70;99.90;;;;;;5053579;28;20049;-65
2022/09/05 05:05:48;;;;;;;9.35;6.13;;;16.60;99.90;;;;;;5035823;28;20491;-65
2022/09/05 05:08:23;;;;;;;9.95;5.95;;;16.60;99.90;;;;;;5017799;28;20044;-65
2022/09/05 05:10:57;;;;;;;7.65;6.57;;;16.80;99.90;;;;;;5047325;28;20036;-65
2022/09/05 05:13:49;;;;;;;9.32;6.10;;;16.50;99.90;;;;;;5024269;28;20044;-65
2022/09/05 05:16:24;;;;;;;7.13;5.63;;;16.70;99.90;;;;;;5053569;28;20037;-65
2022/09/05 05:19:12;;;;;;;7.82;6.47;;;16.60;99.90;;;;;;5035677;28;20071;-65
2022/09/05 05:21:46;;;;;;;8.57;5.82;;;16.60;99.90;;;;;;5020174;28;20053;-65
2022/09/05 05:24:18;;;;;;;6.95;5.65;;;16.60;99.90;;;;;;5033548;28;20049;-65
2022/09/05 05:27:06;;;;;;;8.10;5.88;;;16.70;99.90;;;;;;5032113;28;20052;-65
2022/09/05 05:30:03;;;;;;;9.48;6.20;;;16.70;99.90;;;;;;5035602;28;20049;-65
2022/09/05 05:32:40;;;;;;;8.98;6.68;;;16.70;99.90;;;;;;5029299;28;20040;-65
2022/09/05 05:35:14;;;;;;;8.05;6.45;;;16.60;99.90;;;;;;5052485;28;20056;-65
2022/09/05 05:37:52;;;;;;;9.57;6.05;;;16.80;99.90;;;;;;5053047;28;20086;-65
2022/09/05 05:40:20;;;;;;;7.85;6.50;;;16.90;99.90;;;;;;5000932;28;20037;-65
2022/09/05 05:42:45;;;;;;;7.75;6.50;;;16.80;99.90;;;;;;4999337;28;20077;-65
2022/09/05 05:45:32;;;;;;;10.57;6.25;;;16.70;99.90;;;;;;4995947;28;20058;-65
2022/09/05 05:48:04;;;;;;;7.30;6.60;;;17.00;99.90;;;;;;5002606;28;20484;-65
2022/09/05 05:51:02;;;;;;;7.22;5.63;;;16.80;99.90;;;;;;4999700;28;20048;-65
2022/09/05 05:53:48;;;;;;;10.07;6.47;;;16.90;99.90;;;;;;5014911;28;20042;-65
2022/09/05 05:56:34;;;;;;;6.97;6.25;;;17.20;99.90;;;;;;4997572;28;20046;-65
2022/09/05 05:58:59;;;;;;;;;;;17.10;99.90;;;;;;5029715;28;20053;-65
2022/09/05 06:01:45;;;;;;;7.32;6.00;;;17.20;99.90;;;;;;5015059;28;20094;-65
2022/09/05 06:04:46;;;;;;;9.82;6.20;;;17.40;99.90;;;;;;4978587;28;20136;-65
2022/09/05 06:07:36;;;;;;;7.60;6.70;;;17.40;99.90;;;;;;5014425;28;20499;-65
2022/09/05 06:10:38;;;;;;;9.35;6.57;;;17.30;99.90;;;;;;5004616;28;20051;-65
2022/09/05 06:13:40;;;;;;;9.35;6.60;;;17.70;99.90;;;;;;5006892;28;20560;-65
2022/09/05 06:16:08;;;;;;;9.32;6.60;;;17.60;99.90;;;;;;5014461;28;20075;-65
2022/09/05 06:19:09;;;;;;;8.73;6.28;;;17.90;99.90;;;;;;4998889;28;20048;-65
2022/09/05 06:21:58;;;;;;;9.00;6.85;;;17.90;99.90;;;;;;5014509;28;20045;-65
2022/09/05 06:24:48;;;;;;;8.32;6.25;;;17.90;99.90;;;;;;5014447;28;20112;-65
2022/09/05 06:27:27;;;;;;;7.20;6.50;;;18.20;99.90;;;;;;5013530;28;20064;-65
2022/09/05 06:30:01;;;;;;;7.78;6.63;;;18.30;99.90;;;;;;5014170;28;20052;-65
2022/09/05 06:32:59;;;;;;;7.55;6.38;;;18.40;99.90;;;;;;5014664;28;20049;-64
2022/09/05 06:35:45;;;;;;;7.20;6.50;;;18.20;99.90;;;;;;5003695;28;20049;-65
2022/09/05 06:38:38;;;;;;;7.00;6.32;;;18.70;99.90;;;;;;5025635;28;20112;-64
2022/09/05 06:41:22;;;;;;;7.13;5.38;;;18.80;99.90;;;;;;5032246;28;20045;-64
2022/09/05 06:44:03;;;;;;;7.20;5.20;;;18.90;99.90;;;;;;5013310;28;20045;-64
2022/09/05 06:46:36;;;;;;;9.98;5.80;;;18.90;99.90;;;;;;5006606;28;20120;-65
2022/09/05 06:49:16;;;;;;;7.32;5.95;;;18.90;99.90;;;;;;5018190;28;20099;-64
2022/09/05 06:52:05;;;;;;;12.00;6.50;;;19.00;99.90;;;;;;5028520;28;20033;-64
2022/09/05 06:55:04;;;;;;;6.55;5.65;;;18.90;99.90;;;;;;4998457;28;20483;-64
2022/09/05 06:58:06;;;;;;;9.93;6.15;;;19.10;99.90;;;;;;5035892;28;20125;-64
2022/09/05 07:00:47;;;;;;;7.05;5.53;;;19.10;99.90;;;;;;5030691;28;20042;-64
2022/09/05 07:03:51;;;;;;;7.72;5.60;;;19.10;99.90;;;;;;5035706;28;20045;-64
2022/09/05 07:06:41;;;;;;;8.38;6.15;;;19.30;99.90;;;;;;5029642;28;20073;-64
2022/09/05 07:09:30;;;;;;;6.65;5.95;;;19.20;99.90;;;;;;5035652;28;20033;-64
2022/09/05 07:11:55;;;;;;;10.52;5.78;;;19.30;99.90;;;;;;5017328;28;20499;-64
2022/09/05 07:14:26;;;;;;;6.22;5.63;;;19.50;99.90;;;;;;5035818;28;20049;-64
2022/09/05 07:17:04;;;;;;;6.80;6.10;;;19.80;99.90;;;;;;5035679;28;20434;-64
2022/09/05 07:19:45;;;;;;;7.25;6.25;;;19.80;99.90;;;;;;5035429;28;20518;-64
2022/09/05 07:22:20;;;;;;;8.65;6.25;;;19.90;99.90;;;;;;5018077;28;20099;-64
2022/09/05 07:24:49;;;;;;;7.32;5.28;;;20.10;99.90;;;;;;5017997;28;20080;-64
2022/09/05 07:27:47;;;;;;;9.82;5.93;;;20.30;99.90;;;;;;5049156;28;20033;-64
2022/09/05 07:30:17;;;;;;;10.57;5.00;;;20.50;99.90;;;;;;5034857;28;20574;-64
2022/09/05 07:32:46;;;;;;;7.40;5.28;;;20.40;99.90;;;;;;5045889;28;20048;-64
2022/09/05 07:35:28;;;;;;;8.82;4.82;;;20.70;99.90;;;;;;5017463;28;20057;-64
2022/09/05 07:38:23;;;;;;;8.13;5.43;;;20.80;99.90;;;;;;5035312;28;20041;-64
2022/09/05 07:40:56;;;;;;;6.00;5.25;;;21.00;99.90;;;;;;5010526;28;20051;-64
2022/09/05 07:43:38;;;;;;;6.82;5.10;;;21.00;99.90;;;;;;5023840;28;20061;-64
2022/09/05 07:46:12;;;;;;;7.63;5.53;;;21.20;99.90;;;;;;5035295;28;20119;-64
2022/09/05 07:48:43;;;;;;;6.78;6.07;;;21.50;99.90;;;;;;5031215;28;20040;-64
2022/09/05 07:51:15;;;;;;;9.27;5.30;;;21.20;99.90;;;;;;5024598;28;20498;-64
2022/09/05 07:53:42;;;;;;;6.82;4.93;;;21.40;99.90;;;;;;5055124;28;20414;-64
2022/09/05 07:56:09;;;;;;;5.63;4.70;;;21.30;99.90;;;;;;5055153;28;20116;-65
2022/09/05 07:58:42;;;;;;;6.35;5.75;;;21.60;99.90;;;;;;5023995;28;20045;-64
2022/09/05 08:01:15;;;;;;;7.18;5.53;;;21.80;99.90;;;;;;5036439;28;20048;-64
2022/09/05 08:03:42;;;;;;;7.47;5.70;;;21.60;99.90;;;;;;5054694;28;20415;-64
2022/09/05 08:06:21;;;;;;;6.95;5.10;;;21.90;99.90;;;;;;5022810;28;20052;-64
2022/09/05 08:09:03;;;;;;;6.43;4.82;;;21.80;99.90;;;;;;5027487;28;20073;-65
2022/09/05 08:11:32;;;;;;;6.35;5.38;;;22.30;99.90;;;;;;5034724;28;20060;-65
2022/09/05 08:14:12;;;;;;;6.57;4.85;;;22.20;99.90;;;;;;5045418;28;20073;-64
2022/09/05 08:16:38;;;;;;;6.00;4.97;;;22.10;99.90;;;;;;5034865;28;20052;-65
2022/09/05 08:19:41;;;;;;;7.72;4.68;;;22.40;99.90;;;;;;5029931;28;20044;-64
2022/09/05 08:22:16;;;;;;;5.85;5.00;;;22.50;99.90;;;;;;5035689;28;20072;-64
2022/09/05 08:24:51;;;;;;;9.43;5.00;;;22.70;99.90;;;;;;5019013;28;20052;-65
2022/09/05 08:27:28;;;;;;;8.18;5.30;;;22.80;99.90;;;;;;5034299;28;20057;-64
2022/09/05 08:30:09;;;;;;;5.65;4.13;;;23.40;99.90;;;;;;5016436;28;20080;-65
2022/09/05 08:33:05;;;;;;;6.93;4.85;;;22.60;99.90;;;;;;5034262;28;20034;-65
2022/09/05 08:35:52;;;;;;;6.78;4.93;;;23.00;99.90;;;;;;5038801;28;20037;-65
2022/09/05 08:38:19;;;;;;;7.93;5.30;;;22.80;99.90;;;;;;5036195;28;20097;-65
2022/09/05 08:40:47;;;;;;;4.70;4.25;;;23.30;99.90;;;;;;5034263;28;20053;-65
2022/09/05 08:43:49;;;;;;;7.53;3.88;;;23.40;99.90;;;;;;5046400;28;20517;-65
2022/09/05 08:46:31;;;;;;;6.38;4.80;;;23.10;99.90;;;;;;5032475;28;20037;-65
2022/09/05 08:49:21;;;;;;;7.07;4.47;;;23.80;99.90;;;;;;5054332;28;20390;-65
2022/09/05 08:51:59;;;;;;;4.72;4.25;;;23.80;99.90;;;;;;5023882;28;20045;-65
2022/09/05 08:54:53;;;;;;;5.40;4.35;;;23.90;99.90;;;;;;5034098;28;20041;-65
2022/09/05 08:57:42;;;;;;;7.20;4.30;;;24.20;99.90;;;;;;5018608;28;20069;-65
2022/09/05 09:00:09;;;;;;;6.18;4.07;;;24.20;99.90;;;;;;5053607;28;20088;-65
2022/09/05 09:03:01;;;;;;;6.40;3.45;;;24.60;99.90;;;;;;5053149;28;20076;-65
2022/09/05 09:05:29;;;;;;;5.85;3.60;;;24.40;99.90;;;;;;5040782;28;20060;-64
2022/09/05 09:08:09;;;;;;;5.90;3.75;;;24.70;99.90;;;;;;5016202;28;20119;-65
2022/09/05 09:11:12;;;;;;;5.88;4.13;;;26.10;99.90;;;;;;5029071;28;20167;-65
2022/09/05 09:14:15;;;;;;;4.43;3.45;;;24.90;99.90;;;;;;5024649;28;20060;-65
2022/09/05 09:17:03;;;;;;;4.10;3.53;;;25.10;99.90;;;;;;5028954;28;20103;-65
2022/09/05 09:19:50;;;;;;;7.22;3.53;;;25.10;99.90;;;;;;5039250;28;20080;-65
2022/09/05 09:22:46;;;;;;;4.32;3.35;;;25.50;99.90;;;;;;5023921;28;20052;-65
2022/09/05 09:25:25;;;;;;;6.07;3.35;;;25.70;99.90;;;;;;5017490;28;20048;-65
2022/09/05 09:28:15;;;;;;;5.80;3.30;;;25.50;99.90;;;;;;5041635;28;20037;-65
2022/09/05 09:30:51;;;;;;;6.38;4.05;;;26.00;99.90;;;;;;5040347;28;20037;-65
2022/09/05 09:33:28;;;;;;;6.78;3.90;;;26.00;99.90;;;;;;5053267;28;20045;-65
2022/09/05 09:36:04;;;;;;;6.65;3.17;;;26.00;99.90;;;;;;5035541;28;20398;-64
2022/09/05 09:39:03;;;;;;;4.95;3.10;;;26.40;99.90;;;;;;5020071;28;20138;-64
2022/09/05 09:41:44;;;;;;;5.68;3.38;;;26.20;99.90;;;;;;5015304;28;20045;-65
2022/09/05 09:44:47;;;;;;;6.85;3.20;;;26.40;99.90;;;;;;5048839;28;20112;-65
2022/09/05 09:47:19;;;;;;;4.15;3.10;;;26.20;99.90;;;;;;5032351;28;20041;-65
2022/09/05 09:50:16;;;;;;;5.75;2.80;;;26.60;99.90;;;;;;5008822;28;20045;-65
2022/09/05 09:53:15;;;;;;;3.67;3.03;;;26.60;99.90;;;;;;5015511;28;20523;-65
2022/09/05 09:55:52;;;;;;;4.72;2.58;;;26.80;99.90;;;;;;5015111;28;20052;-65
2022/09/05 09:58:35;;;;;;;5.22;2.63;;;26.90;99.90;;;;;;5015218;28;20077;-65
2022/09/05 10:01:20;;;;;;;5.40;2.78;;;27.00;99.90;;;;;;5019720;28;20068;-65
2022/09/05 10:04:07;;;;;;;6.20;2.83;;;27.20;99.90;;;;;;5052412;28;20063;-65
2022/09/05 10:07:08;;;;;;;6.85;2.88;;;28.50;99.90;;;;;;4987349;28;20046;-65
2022/09/05 10:10:05;;;;;;;3.85;2.90;;;27.30;99.90;;;;;;5033760;28;20044;-65
2022/09/05 10:13:12;;;;;;;5.35;2.55;;;27.50;99.90;;;;;;5052792;28;20124;-65
2022/09/05 10:16:08;;;;;;;8.05;2.65;;;27.50;99.90;;;;;;5034986;28;20053;-65
2022/09/05 10:19:01;;;;;;;4.22;1.92;;;27.80;99.90;;;;;;5031242;28;20479;-65
2022/09/05 10:21:54;;;;;;;3.70;2.65;;;27.70;99.90;;;;;;5015508;28;20160;-65
2022/09/05 10:24:34;;;;;;;5.28;3.42;;;27.90;99.90;;;;;;4969545;28;20046;-65
2022/09/05 10:27:12;;;;;;;6.05;2.25;;;27.60;99.90;;;;;;5039811;28;20037;-65
2022/09/05 10:30:10;;;;;;;5.28;2.05;;;27.70;99.90;;;;;;5056669;28;20143;-65
2022/09/05 10:32:40;;;;;;;5.20;2.15;;;27.70;99.90;;;;;;5025243;28;20052;-65
2022/09/05 10:35:32;;;;;;;5.55;2.22;;;28.20;99.90;;;;;;5050631;28;20080;-65
2022/09/05 10:38:13;;;;;;;2.88;2.33;;;27.60;99.90;;;;;;5029651;28;20045;-65
2022/09/05 10:40:42;;;;;;;6.35;2.00;;;29.50;99.90;;;;;;5019403;28;20072;-65
2022/09/05 10:43:27;;;;;;;2.97;1.88;;;27.70;99.90;;;;;;5036284;28;20514;-65
2022/09/05 10:45:55;;;;;;;3.17;1.25;;;27.60;99.90;;;;;;5022676;28;20047;-65
2022/09/05 10:48:36;;;;;;;2.95;1.30;;;27.60;99.90;;;;;;5048546;28;20515;-65
2022/09/05 10:51:37;;;;;;;3.92;1.42;;;27.80;99.90;;;;;;5022867;28;20039;-65
2022/09/05 10:54:21;;;;;;;4.25;1.50;;;27.70;99.90;;;;;;5029111;28;20128;-65
2022/09/05 10:56:55;;;;;;;4.22;1.30;;;27.60;99.90;;;;;;5048123;28;20049;-65
2022/09/05 10:59:36;;;;;;;1.55;1.13;;;27.60;99.90;;;;;;5024118;28;20037;-65
2022/09/05 11:02:18;;;;;;;4.68;1.52;;;27.70;99.90;;;;;;5042525;28;20112;-65
2022/09/05 11:04:58;;;;;;;5.10;1.67;;;28.00;99.90;;;;;;5030605;28;20418;-65
2022/09/05 11:07:33;;;;;;;2.88;1.63;;;27.70;99.90;;;;;;5030078;28;20068;-65
2022/09/05 11:10:03;;;;;;;3.10;1.80;;;27.60;99.90;;;;;;5047248;28;20163;-65
2022/09/05 11:12:58;;;;;;;2.60;1.50;;;29.80;99.90;;;;;;5032961;28;20402;-65
2022/09/05 11:15:30;;;;;;;8.23;1.60;;;27.70;99.90;;;;;;5044869;28;20399;-65
2022/09/05 11:17:55;;;;;;;7.63;1.90;;;27.80;99.90;;;;;;5049762;28;20037;-65
2022/09/05 11:20:42;;;;;;;4.78;1.65;;;27.60;99.90;;;;;;5027917;28;20087;-66
2022/09/05 11:23:20;;;;;;;3.70;1.83;;;29.50;99.90;;;;;;5041141;28;20070;-65
2022/09/05 11:26:04;;;;;;;4.45;1.35;;;27.90;99.90;;;;;;5017921;28;20037;-65
2022/09/05 11:28:33;;;;;;;;;;;27.90;99.90;;;;;;5052848;28;20437;-65
2022/09/05 11:31:00;;;;;;;3.13;1.88;;;27.70;99.90;;;;;;5037393;28;19924;-64
2022/09/05 11:33:31;;;;;;;4.95;1.63;;;29.20;99.90;;;;;;5036691;28;20092;-65
2022/09/05 11:36:14;;;;;;;6.03;1.83;;;27.90;99.90;;;;;;5029195;28;20057;-65
2022/09/05 11:39:01;;;;;;;3.38;1.38;;;27.90;99.90;;;;;;5038052;28;20073;-65
2022/09/05 11:41:45;;;;;;;7.55;1.92;;;27.80;99.90;;;;;;5025758;28;20045;-65
2022/09/05 11:44:38;;;;;;;2.28;1.65;;;29.50;99.90;;;;;;5024017;28;20091;-65
2022/09/05 11:47:24;;;;;;;5.40;1.52;;;27.90;99.90;;;;;;5037432;28;20041;-65
2022/09/05 11:50:24;;;;;;;3.95;1.60;;;27.90;99.90;;;;;;5037130;28;20044;-65
2022/09/05 11:53:05;;;;;;;2.05;1.20;;;28.20;99.90;;;;;;5004859;28;20377;-65
2022/09/05 11:56:14;;;;;;;2.90;1.30;;;28.00;99.90;;;;;;5018909;28;20446;-65
2022/09/05 11:59:01;;;;;;;1.90;1.38;;;27.90;99.90;;;;;;5055143;28;20055;-65
2022/09/05 12:01:41;;;;;;;1.98;1.10;;;28.00;99.90;;;;;;5031471;28;20076;-65
2022/09/05 12:04:33;;;;;;;2.72;1.00;;;27.90;99.90;;;;;;5054500;28;20049;-65
2022/09/05 12:07:33;;;;;;;4.93;1.30;;;28.30;99.90;;;;;;5025341;28;20395;-65
2022/09/05 12:10:11;;;;;;;2.42;1.70;;;28.50;99.90;;;;;;5025771;28;20076;-65
2022/09/05 12:12:55;;;;;;;4.03;1.33;;;28.20;99.90;;;;;;5022701;28;20055;-65
2022/09/05 12:15:26;;;;;;;1.45;1.00;;;28.30;99.90;;;;;;5036735;28;20052;-65
2022/09/05 12:18:02;;;;;;;2.17;1.38;;;28.20;99.90;;;;;;5054419;28;20036;-65
2022/09/05 12:21:04;;;;;;;2.58;1.13;;;28.20;99.90;;;;;;5054497;28;20067;-66
2022/09/05 12:23:54;;;;;;;3.60;0.93;;;28.30;99.90;;;;;;5005046;28;20056;-65
2022/09/05 12:26:36;;;;;;;2.33;1.10;;;28.30;99.90;;;;;;5047557;28;20468;-65
2022/09/05 12:29:17;;;;;;;4.25;1.00;;;28.30;99.90;;;;;;5004285;28;20045;-65
2022/09/05 12:31:49;;;;;;;3.65;1.20;;;28.40;99.90;;;;;;5035426;28;20061;-64
2022/09/05 12:34:51;;;;;;;4.18;1.25;;;28.60;99.90;;;;;;5054413;28;20039;-65
2022/09/05 12:37:38;;;;;;;4.82;1.20;;;28.50;99.90;;;;;;5053305;28;20041;-65
2022/09/05 12:40:29;;;;;;;4.35;1.30;;;28.20;99.90;;;;;;5036148;28;20060;-65
2022/09/05 12:43:08;;;;;;;2.03;1.13;;;28.40;99.90;;;;;;5035525;28;20052;-65
2022/09/05 12:46:01;;;;;;;4.57;1.20;;;28.20;99.90;;;;;;5022147;28;20495;-66
2022/09/05 12:48:36;;;;;;;4.10;1.40;;;28.10;99.90;;;;;;5036273;28;20052;-65
2022/09/05 12:51:06;;;;;;;3.13;1.20;;;28.30;99.90;;;;;;5009466;28;20037;-65
2022/09/05 12:53:48;;;;;;;3.63;1.40;;;28.30;99.90;;;;;;5036043;28;20045;-65
2022/09/05 12:56:39;;;;;;;1.92;0.93;;;28.50;99.90;;;;;;5010913;28;20036;-65
2022/09/05 12:59:12;;;;;;;6.25;1.60;;;28.50;99.90;;;;;;5035951;28;20053;-65
2022/09/05 13:01:42;;;;;;;2.45;0.90;;;28.20;99.90;;;;;;5026066;28;20041;-65
2022/09/05 13:04:20;;;;;;;2.97;1.17;;;28.20;99.90;;;;;;5049856;28;20052;-65
2022/09/05 13:06:55;;;;;;;6.70;1.20;;;29.20;99.90;;;;;;5031391;28;20051;-65
2022/09/05 13:09:45;;;;;;;3.05;0.82;;;28.80;99.90;;;;;;5050805;28;20391;-65
2022/09/05 13:12:23;;;;;;;5.05;1.15;;;28.40;99.90;;;;;;5053460;28;20084;-65
2022/09/05 13:15:06;;;;;;;7.05;0.90;;;29.30;99.90;;;;;;5002400;28;20163;-65
2022/09/05 13:17:58;;;;;;;6.40;1.10;;;28.40;99.90;;;;;;5015702;28;20095;-64
2022/09/05 13:20:35;;;;;;;3.53;1.02;;;28.30;99.70;;;;;;5015775;28;20103;-65
2022/09/05 13:23:34;;;;;;;7.45;1.13;;;29.00;99.90;;;;;;5051242;28;20124;-65
2022/09/05 13:26:32;;;;;;;4.32;1.00;;;28.60;99.90;;;;;;5009208;28;20145;-65
2022/09/05 13:29:02;;;;;;;2.03;1.15;;;28.60;99.50;;;;;;5009308;28;20037;-65
2022/09/05 13:31:40;;;;;;;4.43;0.88;;;28.80;99.90;;;;;;5053517;28;20037;-65
2022/09/05 13:34:26;;;;;;;2.03;1.05;;;30.20;99.90;;;;;;5009833;28;20048;-65
2022/09/05 13:37:17;;;;;;;1.73;0.80;;;28.60;99.90;;;;;;5052531;28;20522;-65
2022/09/05 13:40:14;;;;;;;2.85;1.00;;;28.50;99.60;;;;;;5024251;28;20435;-65
2022/09/05 13:42:43;;;;;;;1.63;1.02;;;28.60;99.70;;;;;;5033434;28;20046;-65
2022/09/05 13:45:17;;;;;;;2.83;0.93;;;28.40;99.90;;;;;;5033117;28;20045;-65
2022/09/05 13:47:56;;;;;;;4.80;0.87;;;30.00;99.90;;;;;;5022784;28;20059;-65
2022/09/05 13:50:35;;;;;;;2.40;0.85;;;28.60;99.70;;;;;;5053124;28;20040;-65
2022/09/05 13:53:50;;;;;;;3.60;0.90;;;28.20;99.90;;;;;;5035024;28;20056;-65
2022/09/05 13:56:22;;;;;;;6.10;1.33;;;28.70;99.50;;;;;;5003019;28;20131;-66
2022/09/05 13:58:52;;;;;;;2.47;1.33;;;28.50;99.90;;;;;;5029929;28;20479;-65
2022/09/05 14:01:42;;;;;;;4.40;1.38;;;28.10;99.90;;;;;;5045819;28;20045;-65
2022/09/05 14:05:01;;;;;;;2.45;0.90;;;28.10;99.60;;;;;;5031075;28;20082;-65
2022/09/05 14:07:45;;;;;;;3.10;1.35;;;28.20;99.60;;;;;;4940775;29;20565;-65
2022/09/05 14:10:25;;;;;;;2.55;1.50;;;28.20;99.90;;;;;;4936693;29;20047;-65
2022/09/05 14:13:03;;;;;;;4.20;1.20;;;28.20;99.80;;;;;;4997763;28;20133;-65
2022/09/05 14:15:48;;;;;;;3.42;1.30;;;29.70;99.90;;;;;;5032788;28;20033;-65